Latest Coastal Weather Observations for Norfolk Island

IDN60701

Issued at 3:31 pm EDT Thursday 19 January 2017 (issued every 10 minutes, with the page automatically refreshed every 10 minutes)

About coastal observations | Map of coastal stations | Coastal observations for NSW | Marine services | Other Formats
Station Details ID: 200288 Name: NORFOLK ISLAND AERO Lat: -29.04 Lon: 167.94 Height: 111.73 m
Data from the previous 72 hours. | See also: Recent months at Norfolk Island
Date/Time
EDT
Temp
°C
Wind Pressure Rain since
9am
mm
Weather Cloud Vis
km
Sea
Height
m
Swell
Dir  Spd
kts
Gust
kts
hPa Trend Height
m
Period
s
Dir
19/03:00pm 24.5 W 15 18 1005.9 - 0.0 - Cloudy 10 - - - -
19/02:30pm 24.4 W 13 17 1006.2 - 0.0 - Mostly clear 10 - - - -
19/02:00pm 24.5 W 13 19 1006.6 - 0.0 - Mostly clear 10 - - - -
19/01:30pm 24.7 W 14 18 1006.7 - 0.0 - Mostly clear 10 - - - -
19/01:00pm 25.4 W 15 18 1006.6 - 0.0 - Mostly clear 10 - - - -
19/12:30pm 25.5 W 14 18 1007.1 - 0.0 - Mostly clear 10 - - - -
19/12:00pm 25.3 W 13 18 1007.6 - 0.0 - - 10 - - - -
19/11:30am 25.0 WSW 14 18 1007.7 - 0.0 - Mostly clear 10 - - - -
19/11:00am 24.8 WSW 15 19 1008.0 - 0.0 - - 10 - - - -
19/10:30am 24.6 WSW 17 21 1008.1 - 0.0 - Mostly clear 10 - - - -
19/10:00am 24.3 WSW 17 21 1008.0 - 0.0 - Mostly clear 10 - - - -
19/09:30am 24.1 WSW 17 20 1008.2 - 0.0 - Partly cloudy 10 - - - -
19/09:00am 24.5 WSW 15 19 1008.2 - 0.0 - Mostly clear 10 - - - -
19/08:30am 23.5 W 13 19 1008.4 - 0.0 - Partly cloudy 10 - - - -
19/08:00am 22.8 W 13 19 1008.6 - 0.0 - Partly cloudy 10 - - - -
19/07:30am 22.8 W 14 18 1008.7 - 0.0 - Partly cloudy 10 - - - -
19/07:00am 22.3 W 12 17 1008.7 - 0.0 - Partly cloudy 10 - - - -
19/06:30am 21.7 W 10 15 1008.8 - 0.0 - Partly cloudy 10 - - - -
19/06:00am 21.2 W 10 14 1008.7 - 0.0 - Cloudy 10 - - - -
19/05:30am 20.6 W 10 14 1008.7 - 0.0 - - 10 - - - -
19/05:00am 20.3 W 9 14 1008.5 - 0.0 - Partly cloudy 10 - - - -
19/04:30am 20.5 W 11 16 1008.3 - 0.0 - Partly cloudy 10 - - - -
19/04:00am 20.3 W 8 12 1008.2 - 0.0 - Partly cloudy 10 - - - -
19/03:30am 19.9 W 8 11 1008.5 - 0.0 - Partly cloudy 10 - - - -
19/03:00am 19.8 W 7 14 1008.7 - 0.0 - Mostly cloudy 10 - - - -
19/02:30am 18.8 WNW 6 9 1008.9 - 0.0 - Partly cloudy 10 - - - -
19/02:00am 17.8 WNW 5 7 1009.0 - 0.0 - - 10 - - - -
19/01:30am 17.9 WNW 5 6 1009.6 - 0.0 - - 10 - - - -
19/01:00am 18.0 NW 4 5 1010.1 - 0.0 - - 10 - - - -
19/12:30am 18.4 NNW 4 5 1010.5 - 0.0 - - 10 - - - -
19/12:00am 18.5 N 4 6 1010.6 - 0.0 - - 10 - - - -
 
Date/Time
EDT
Temp
°C
Wind Pressure Rain since
9am
mm
Weather Cloud Vis
km
Sea
Height
m
Swell
Dir  Spd
kts
Gust
kts
hPa Trend Height
m
Period
s
Dir
18/11:30pm 18.3 NNE 5 5 1011.1 - 0.0 - - 10 - - - -
18/11:00pm 18.6 NNE 5 6 1011.5 - 0.0 - - 10 - - - -
18/10:30pm 18.7 NNE 5 6 1011.9 - 0.0 - - 10 - - - -
18/10:00pm 18.6 NNE 4 5 1012.2 - 0.0 - - 10 - - - -
18/09:30pm 18.7 NNE 5 5 1012.6 - 0.0 - - 10 - - - -
18/09:00pm 18.4 NNE 6 6 1012.8 - 0.0 - - 10 - - - -
18/08:30pm 18.8 CALM 0 0 1012.8 - 0.0 - - 10 - - - -
18/08:00pm 19.1 CALM 0 0 1012.6 - 0.0 - Partly cloudy 10 - - - -
18/07:30pm 19.9 CALM 0 3 1012.7 - 0.0 - Cloudy 10 - - - -
18/07:00pm 20.3 S 2 4 1012.6 - 0.0 - Partly cloudy 10 - - - -
18/06:30pm 20.9 SE 5 6 1012.3 - 0.0 - Cloudy 10 - - - -
18/06:00pm 21.3 SSE 5 7 1012.2 - 0.0 - Mostly clear 10 - - - -
18/05:30pm 21.9 SE 6 9 1012.1 - 0.0 - - 10 - - - -
18/05:00pm 22.4 ESE 6 8 1012.0 - 0.0 - - 10 - - - -
18/04:30pm 22.5 SSE 7 10 1012.0 - 0.0 - - 10 - - - -
18/04:00pm 22.9 SE 7 9 1012.1 - 0.0 - Mostly clear 10 - - - -
18/03:30pm 22.7 SE 8 12 1012.4 - 0.0 - Mostly clear 10 - - - -
18/03:00pm 22.7 SE 7 11 1012.7 - 0.0 - Mostly clear 10 - - - -
18/02:30pm 23.1 SE 8 12 1013.2 - 0.0 - Mostly clear 10 - - - -
18/02:00pm 23.3 SSE 8 13 1013.5 - 0.0 - Mostly clear 10 - - - -
18/01:30pm 22.8 SE 8 12 1013.6 - 0.0 - Mostly clear 10 - - - -
18/01:00pm 23.1 SE 7 11 1014.0 - 0.0 - Mostly clear 10 - - - -
18/12:30pm 22.8 SE 9 17 1014.4 - 0.0 - Mostly clear 10 - - - -
18/12:00pm 23.1 ESE 8 13 1014.6 - 0.0 - Mostly clear 10 - - - -
18/11:30am 23.7 SE 8 15 1014.7 - 0.0 - Mostly clear 10 - - - -
18/11:00am 22.8 SE 10 15 1014.8 - 0.0 - Mostly clear 10 - - - -
18/10:30am 23.1 ESE 10 15 1014.9 - 0.0 - Mostly clear 10 - - - -
18/10:00am 22.5 SE 9 15 1015.1 - 0.0 - Mostly clear 10 - - - -
18/09:30am 22.6 SE 8 11 1014.9 - 0.0 - Mostly clear 10 - - - -
18/09:00am 22.6 SE 8 14 1015.0 - 0.0 - Mostly clear 10 - - - -
18/08:30am 22.2 ESE 9 13 1015.2 - 0.0 - Mostly clear 10 - - - -
18/08:00am 21.4 SE 9 13 1015.6 - 0.0 - Mostly clear 10 - - - -
18/07:30am 21.6 SE 8 13 1015.5 - 0.0 - Cloudy 10 - - - -
18/07:00am 21.9 SE 8 12 1015.4 - 0.0 - Partly cloudy 10 - - - -
18/06:30am 20.9 E 5 8 1015.1 - 0.0 - - 10 - - - -
18/06:00am 18.7 E 4 6 1015.0 - 0.0 - Mostly clear 10 - - - -
18/05:30am 17.4 ENE 4 5 1014.7 - 0.0 - - 10 - - - -
18/05:00am 17.3 ENE 5 6 1014.2 - 0.0 - - 10 - - - -
18/04:30am 18.0 E 5 6 1014.0 - 0.0 - - 10 - - - -
18/04:00am 17.7 E 4 5 1014.1 - 0.0 - - 10 - - - -
18/03:30am 17.8 ENE 5 5 1013.9 - 0.0 - - 10 - - - -
18/03:00am 18.0 ENE 6 7 1013.9 - 0.0 - Mostly clear 10 - - - -
18/02:30am 19.1 E 5 6 1014.2 - 0.0 - Partly cloudy 10 - - - -
18/02:00am 19.5 E 7 11 1014.9 - 0.0 - - 10 - - - -
18/01:30am 20.0 ESE 7 10 1015.6 - 0.0 - Partly cloudy 10 - - - -
18/01:00am 19.8 ESE 5 7 1016.0 - 0.0 - Partly cloudy 10 - - - -
18/12:30am 20.2 ESE 5 8 1016.5 - 0.0 - Partly cloudy 10 - - - -
18/12:00am 19.5 E 5 6 1016.8 - 0.0 - - 10 - - - -
 
Date/Time
EDT
Temp
°C
Wind Pressure Rain since
9am
mm
Weather Cloud Vis
km
Sea
Height
m
Swell
Dir  Spd
kts
Gust
kts
hPa Trend Height
m
Period
s
Dir
17/11:30pm 20.0 ESE 5 9 1016.9 - 0.0 - Partly cloudy 10 - - - -
17/11:00pm 20.4 ESE 7 11 1017.1 - 0.0 - Partly cloudy 10 - - - -
17/10:30pm 20.8 ESE 7 9 1017.4 - 0.0 - Partly cloudy 10 - - - -
17/10:00pm 20.9 E 7 10 1017.5 - 0.0 - Partly cloudy 10 - - - -
17/09:30pm 21.0 E 9 15 1017.5 - 0.0 - Partly cloudy 10 - - - -
17/09:00pm 20.7 E 5 7 1017.4 - 0.0 - Cloudy 10 - - - -
17/08:30pm 20.2 E 7 9 1017.2 - 0.0 - Partly cloudy 10 - - - -
17/08:00pm 20.5 E 9 12 1017.0 - 0.0 - Partly cloudy 10 - - - -
17/07:30pm 20.6 E 7 10 1017.0 - 0.0 - Partly cloudy 10 - - - -
17/07:00pm 21.1 ESE 9 13 1016.9 - 0.0 - Partly cloudy 10 - - - -
17/06:30pm 21.5 ESE 8 13 1016.5 - 0.0 - Partly cloudy 10 - - - -
17/06:00pm 22.2 ESE 9 15 1016.1 - 0.0 - Partly cloudy 10 - - - -
17/05:30pm 22.4 ESE 10 15 1015.9 - 0.0 - Partly cloudy 10 - - - -
17/05:00pm 23.0 ESE 10 15 1015.7 - 0.0 - Partly cloudy 10 - - - -
17/04:30pm 23.7 ESE 11 17 1015.6 - 0.0 - Partly cloudy 10 - - - -
17/04:00pm 23.8 ESE 10 16 1015.6 - 0.0 - Mostly clear 10 - - - -
17/03:30pm 24.2 SE 12 17 1015.9 - 0.0 - Mostly clear 10 - - - -
17/03:00pm 23.8 SE 12 18 1016.0 - 0.0 - Cloudy 10 - - - -
17/02:30pm 23.9 SE 12 17 1016.1 - 0.0 - Partly cloudy 10 - - - -
17/02:00pm 24.5 SE 12 17 1016.3 - 0.0 - Partly cloudy 10 - - - -
17/01:30pm 24.0 ESE 12 18 1016.5 - 0.0 - Mostly cloudy 10 - - - -
17/01:00pm 24.2 ESE 12 18 1016.5 - 0.0 - Mostly cloudy 10 - - - -
17/12:30pm 24.6 ESE 12 20 1016.6 - 0.0 - Partly cloudy 10 - - - -
17/12:00pm 24.9 ESE 13 18 1016.7 - 0.0 - Cloudy 10 - - - -
17/11:30am 24.4 SE 12 19 1016.8 - 0.0 - Partly cloudy 10 - - - -
17/11:00am 24.3 ESE 11 16 1016.9 - 0.0 - Mostly clear 10 - - - -
17/10:30am 24.3 ESE 13 17 1017.0 - 0.0 - Mostly clear 10 - - - -
17/10:00am 23.5 ESE 11 18 1017.1 - 0.0 - Partly cloudy 10 - - - -
17/09:30am 23.6 ESE 12 19 1017.0 - 0.0 - Mostly cloudy 10 - - - -
17/09:00am 24.1 ESE 12 18 1017.2 - 1.2 - Mostly cloudy 10 - - - -
17/08:30am 23.2 SE 13 18 1016.9 - 1.2 - Partly cloudy 10 - - - -
17/08:00am 22.5 SE 12 18 1016.7 - 1.2 - Mostly clear 10 - - - -
17/07:49am 22.4 SE 11 16 1016.7 - 1.2 - Partly cloudy 10 - - - -
17/07:30am 22.0 SE 10 16 1016.9 - 1.0 - Partly cloudy 10 - - - -
17/07:00am 21.6 SE 9 14 1017.0 - 1.0 - Partly cloudy 10 - - - -
17/06:30am 21.6 ESE 9 15 1016.6 - 1.0 - Partly cloudy 10 - - - -
17/06:06am 21.6 ESE 9 15 1016.3 - 1.0 - Cloudy 10 - - - -
17/06:00am 21.5 ESE 9 15 1016.2 - 1.0 - Cloudy 10 - - - -
17/05:57am 21.5 ESE 10 15 1016.2 - 1.0 - Cloudy 10 - - - -
17/05:30am 21.5 SE 11 15 1015.7 - 1.0 - Partly cloudy 10 - - - -
17/05:00am 21.4 SE 11 17 1015.6 - 1.0 - Cloudy 10 - - - -
17/04:30am 21.4 SE 11 16 1015.3 - 1.0 - Cloudy 9 - - - -
17/04:00am 21.4 SE 11 15 1015.2 - 1.0 - Cloudy 8 - - - -
17/03:30am 21.5 SE 11 16 1014.9 - 1.0 - Cloudy 5 - - - -
17/03:00am 21.6 SE 10 17 1014.8 - 0.8 Showers Mostly cloudy 4 - - - -
17/02:35am 22.1 SSE 9 12 1014.8 - 0.0 - Partly cloudy 6 - - - -
17/02:30am 22.1 SSE 9 12 1014.9 - 0.0 - Partly cloudy 9 - - - -
17/02:00am 22.0 SE 9 13 1015.0 - 0.0 - Cloudy 9 - - - -
17/01:49am 21.9 SE 9 14 1015.1 - 0.0 - Cloudy 10 - - - -
17/01:30am 22.1 SE 7 10 1015.2 - 0.0 - Cloudy 6 - - - -
17/01:00am 22.1 SE 8 12 1015.5 - 0.0 - Cloudy 10 - - - -
17/12:30am 22.4 SSE 7 9 1015.5 - 0.0 - Cloudy 10 - - - -
17/12:00am 22.3 SSE 7 9 1015.8 - 0.0 - Cloudy 10 - - - -
 
Date/Time
EDT
Temp
°C
Wind Pressure Rain since
9am
mm
Weather Cloud Vis
km
Sea
Height
m
Swell
Dir  Spd
kts
Gust
kts
hPa Trend Height
m
Period
s
Dir
16/11:30pm 22.5 SSE 7 9 1016.2 - 0.0 - Cloudy 10 - - - -
16/11:00pm 22.6 SSE 7 8 1016.4 - 0.0 - Partly cloudy 10 - - - -
16/10:30pm 22.5 SSE 5 6 1016.5 - 0.0 - Partly cloudy 10 - - - -
16/10:14pm 22.4 SE 4 6 1016.6 - 0.0 - Partly cloudy 8 - - - -
16/10:00pm 22.2 CALM 0 0 1016.7 - 0.0 - Partly cloudy 7 - - - -
16/09:30pm 22.3 ESE 3 4 1016.8 - 0.0 - Partly cloudy 10 - - - -
16/09:04pm 22.3 ESE 4 5 1016.7 - 0.0 - Partly cloudy 8 - - - -
16/09:00pm 22.3 ESE 4 5 1016.6 - 0.0 - Partly cloudy 8 - - - -
16/08:42pm 22.5 SE 4 6 1016.6 - 0.0 - Partly cloudy 10 - - - -
16/08:30pm 22.4 SE 5 7 1016.6 - 0.0 - Partly cloudy 10 - - - -
16/08:15pm 22.3 SE 5 6 1016.5 - 0.0 - Partly cloudy 10 - - - -
16/08:00pm 22.4 SSE 5 6 1016.5 - 0.0 - Partly cloudy 10 - - - -
16/07:30pm 22.5 SE 4 6 1016.3 - 0.0 - Partly cloudy 10 - - - -
16/07:26pm 22.5 SE 4 5 1016.2 - 0.0 - Partly cloudy 10 - - - -
16/07:00pm 22.6 SE 5 6 1016.1 - 0.0 - Partly cloudy 10 - - - -
16/06:46pm 22.8 ESE 4 5 1015.9 - 0.0 - Partly cloudy 10 - - - -
16/06:30pm 23.1 ESE 5 7 1015.8 - 0.0 - Partly cloudy 10 - - - -
16/06:13pm 23.2 ESE 6 9 1015.6 - 0.0 - Partly cloudy 10 - - - -
16/06:06pm 23.2 SE 7 9 1015.6 - 0.0 - Partly cloudy 10 - - - -
16/06:00pm 23.1 SE 8 11 1015.5 - 0.0 - Partly cloudy 10 - - - -
16/05:30pm 24.6 SE 7 10 1015.1 - 0.0 - Partly cloudy 10 - - - -
16/05:27pm 24.3 SE 7 10 1015.0 - 0.0 - Partly cloudy 10 - - - -
16/05:00pm 25.2 SSE 8 11 1014.8 - 0.0 - - 10 - - - -
16/04:30pm 25.6 SE 8 12 1014.6 - 0.0 - Partly cloudy 10 - - - -
16/04:23pm 25.7 SSE 7 9 1014.7 - 0.0 - Partly cloudy 10 - - - -
16/04:05pm 24.3 S 7 9 1014.8 - 0.0 - Partly cloudy 10 - - - -
16/04:00pm 24.2 S 7 9 1014.8 - 0.0 - Mostly clear 10 - - - -
16/03:30pm 24.1 SSW 7 9 1014.9 - 0.0 - Partly cloudy 10 - - - -

Other Formats:

Comma delimited format used in spreadsheet applications
http://www.bom.gov.au/fwo/IDN60701/IDN60701.94996.axf

JavaScript Object Notation format (JSON) in row-major order
http://www.bom.gov.au/fwo/IDN60701/IDN60701.94996.json